Aviation Digital Data Service (ADDS)

Output produced by METARs form (2110 UTC 20 August 2019)
found at http://www.aviationweather.gov/metar/data/
 
METAR text: EKRK 202050Z AUTO 22002KT 9999 NCD 13/11 Q1022
Conditions at: EKRK (COPENHAGEN/ROSKI, DK) observed 2050 UTC 20 August 2019
Temperature: 13.0°C (55°F)
Dewpoint: 11.0°C (52°F) [RH = 88%]
Pressure (altimeter): 30.18 inches Hg (1022.0 mb)
Winds: from the SW (220 degrees) at 2 MPH (2 knots; 1.0 m/s)
Visibility: 6 or more miles (10+ km)
Ceiling: at least 12,000 feet AGL
Clouds: sky clear below 12,000 feet AGL
Weather: no significant weather observed at this time

METAR text: EKRK 202020Z AUTO 21003KT 9999 FEW042/// 13/11 Q1022
Conditions at: EKRK (COPENHAGEN/ROSKI, DK) observed 2020 UTC 20 August 2019
Temperature: 13.0°C (55°F)
Dewpoint: 11.0°C (52°F) [RH = 88%]
Pressure (altimeter): 30.18 inches Hg (1022.0 mb)
Winds: from the SSW (210 degrees) at 3 MPH (3 knots; 1.5 m/s)
Visibility: 6 or more miles (10+ km)
Ceiling: at least 12,000 feet AGL
Clouds: few clouds at 4200 feet AGL
Weather: no significant weather observed at this time

METAR text: EKRK 201950Z AUTO 22004KT 9999 NCD 14/11 Q1022
Conditions at: EKRK (COPENHAGEN/ROSKI, DK) observed 1950 UTC 20 August 2019
Temperature: 14.0°C (57°F)
Dewpoint: 11.0°C (52°F) [RH = 82%]
Pressure (altimeter): 30.18 inches Hg (1022.0 mb)
Winds: from the SW (220 degrees) at 5 MPH (4 knots; 2.1 m/s)
Visibility: 6 or more miles (10+ km)
Ceiling: at least 12,000 feet AGL
Clouds: sky clear below 12,000 feet AGL
Weather: no significant weather observed at this time

METAR text: EKRK 201920Z AUTO 23004KT 9999 NCD 15/12 Q1022
Conditions at: EKRK (COPENHAGEN/ROSKI, DK) observed 1920 UTC 20 August 2019
Temperature: 15.0°C (59°F)
Dewpoint: 12.0°C (54°F) [RH = 82%]
Pressure (altimeter): 30.18 inches Hg (1022.0 mb)
Winds: from the SW (230 degrees) at 5 MPH (4 knots; 2.1 m/s)
Visibility: 6 or more miles (10+ km)
Ceiling: at least 12,000 feet AGL
Clouds: sky clear below 12,000 feet AGL
Weather: no significant weather observed at this time

METAR text: EKRK 201850Z AUTO 22004KT 9999 NCD 15/12 Q1021
Conditions at: EKRK (COPENHAGEN/ROSKI, DK) observed 1850 UTC 20 August 2019
Temperature: 15.0°C (59°F)
Dewpoint: 12.0°C (54°F) [RH = 82%]
Pressure (altimeter): 30.15 inches Hg (1021.0 mb)
Winds: from the SW (220 degrees) at 5 MPH (4 knots; 2.1 m/s)
Visibility: 6 or more miles (10+ km)
Ceiling: at least 12,000 feet AGL
Clouds: sky clear below 12,000 feet AGL
Weather: no significant weather observed at this time

METAR text: EKRK 201820Z AUTO 22005KT 9999 NCD 16/12 Q1021
Conditions at: EKRK (COPENHAGEN/ROSKI, DK) observed 1820 UTC 20 August 2019
Temperature: 16.0°C (61°F)
Dewpoint: 12.0°C (54°F) [RH = 77%]
Pressure (altimeter): 30.15 inches Hg (1021.0 mb)
Winds: from the SW (220 degrees) at 6 MPH (5 knots; 2.6 m/s)
Visibility: 6 or more miles (10+ km)
Ceiling: at least 12,000 feet AGL
Clouds: sky clear below 12,000 feet AGL
Weather: no significant weather observed at this time

METAR text: EKRK 201750Z AUTO 24005KT 9999 NCD 17/12 Q1021
Conditions at: EKRK (COPENHAGEN/ROSKI, DK) observed 1750 UTC 20 August 2019
Temperature: 17.0°C (63°F)
Dewpoint: 12.0°C (54°F) [RH = 72%]
Pressure (altimeter): 30.15 inches Hg (1021.0 mb)
Winds: from the WSW (240 degrees) at 6 MPH (5 knots; 2.6 m/s)
Visibility: 6 or more miles (10+ km)
Ceiling: at least 12,000 feet AGL
Clouds: sky clear below 12,000 feet AGL
Weather: no significant weather observed at this time

METAR text: EKRK 201720Z AUTO 24006KT 9999 NCD 19/11 Q1021
Conditions at: EKRK (COPENHAGEN/ROSKI, DK) observed 1720 UTC 20 August 2019
Temperature: 19.0°C (66°F)
Dewpoint: 11.0°C (52°F) [RH = 60%]
Pressure (altimeter): 30.15 inches Hg (1021.0 mb)
Winds: from the WSW (240 degrees) at 7 MPH (6 knots; 3.1 m/s)
Visibility: 6 or more miles (10+ km)
Ceiling: at least 12,000 feet AGL
Clouds: sky clear below 12,000 feet AGL
Weather: no significant weather observed at this time

METAR text: EKRK 201650Z AUTO 24006KT 200V260 9999 SCT079/// SCT100/// 19/12 Q1021
Conditions at: EKRK (COPENHAGEN/ROSKI, DK) observed 1650 UTC 20 August 2019
Temperature: 19.0°C (66°F)
Dewpoint: 12.0°C (54°F) [RH = 64%]
Pressure (altimeter): 30.15 inches Hg (1021.0 mb)
Winds: from the WSW (240 degrees) at 7 MPH (6 knots; 3.1 m/s)
Visibility: 6 or more miles (10+ km)
Ceiling: at least 12,000 feet AGL
Clouds: scattered clouds at 7900 feet AGL
scattered clouds at 10000 feet AGL
Weather: no significant weather observed at this time

METAR text: EKRK 201620Z AUTO 23007KT 9999 FEW100/// 19/11 Q1020
Conditions at: EKRK (COPENHAGEN/ROSKI, DK) observed 1620 UTC 20 August 2019
Temperature: 19.0°C (66°F)
Dewpoint: 11.0°C (52°F) [RH = 60%]
Pressure (altimeter): 30.12 inches Hg (1020.0 mb)
Winds: from the SW (230 degrees) at 8 MPH (7 knots; 3.6 m/s)
Visibility: 6 or more miles (10+ km)
Ceiling: at least 12,000 feet AGL
Clouds: few clouds at 10000 feet AGL
Weather: no significant weather observed at this time

METAR text: EKRK 201550Z AUTO 24009KT 9999 FEW092/// FEW100/// 19/12 Q1020
Conditions at: EKRK (COPENHAGEN/ROSKI, DK) observed 1550 UTC 20 August 2019
Temperature: 19.0°C (66°F)
Dewpoint: 12.0°C (54°F) [RH = 64%]
Pressure (altimeter): 30.12 inches Hg (1020.0 mb)
Winds: from the WSW (240 degrees) at 10 MPH (9 knots; 4.6 m/s)
Visibility: 6 or more miles (10+ km)
Ceiling: at least 12,000 feet AGL
Clouds: few clouds at 9200 feet AGL
few clouds at 10000 feet AGL
Weather: no significant weather observed at this time

METAR text: EKRK 201520Z AUTO 22009KT 9999 OVC091/// 19/12 Q1020
Conditions at: EKRK (COPENHAGEN/ROSKI, DK) observed 1520 UTC 20 August 2019
Temperature: 19.0°C (66°F)
Dewpoint: 12.0°C (54°F) [RH = 64%]
Pressure (altimeter): 30.12 inches Hg (1020.0 mb)
Winds: from the SW (220 degrees) at 10 MPH (9 knots; 4.6 m/s)
Visibility: 6 or more miles (10+ km)
Ceiling: 9100 feet AGL
Clouds: overcast cloud deck at 9100 feet AGL
Weather: no significant weather observed at this time

METAR text: EKRK 201450Z AUTO 22007KT 190V250 9999 FEW050/// BKN086/// 19/13 Q1020
Conditions at: EKRK (COPENHAGEN/ROSKI, DK) observed 1450 UTC 20 August 2019
Temperature: 19.0°C (66°F)
Dewpoint: 13.0°C (55°F) [RH = 68%]
Pressure (altimeter): 30.12 inches Hg (1020.0 mb)
Winds: from the SW (220 degrees) at 8 MPH (7 knots; 3.6 m/s)
Visibility: 6 or more miles (10+ km)
Ceiling: 8600 feet AGL
Clouds: few clouds at 5000 feet AGL
broken clouds at 8600 feet AGL
Weather: no significant weather observed at this time

METAR text: EKRK 201420Z AUTO 21006KT 9999 FEW037/// SCT071/// BKN085/// 18/13 Q1020
Conditions at: EKRK (COPENHAGEN/ROSKI, DK) observed 1420 UTC 20 August 2019
Temperature: 18.0°C (64°F)
Dewpoint: 13.0°C (55°F) [RH = 73%]
Pressure (altimeter): 30.12 inches Hg (1020.0 mb)
Winds: from the SSW (210 degrees) at 7 MPH (6 knots; 3.1 m/s)
Visibility: 6 or more miles (10+ km)
Ceiling: 8500 feet AGL
Clouds: few clouds at 3700 feet AGL
scattered clouds at 7100 feet AGL
broken clouds at 8500 feet AGL
Weather: no significant weather observed at this time

METAR text: EKRK 201350Z AUTO 22007KT 190V250 9999 BKN074/// 17/12 Q1020
Conditions at: EKRK (COPENHAGEN/ROSKI, DK) observed 1350 UTC 20 August 2019
Temperature: 17.0°C (63°F)
Dewpoint: 12.0°C (54°F) [RH = 72%]
Pressure (altimeter): 30.12 inches Hg (1020.0 mb)
Winds: from the SW (220 degrees) at 8 MPH (7 knots; 3.6 m/s)
Visibility: 6 or more miles (10+ km)
Ceiling: 7400 feet AGL
Clouds: broken clouds at 7400 feet AGL
Weather: no significant weather observed at this time

METAR text: EKRK 201320Z AUTO 24014KT 9999 -RA BKN036/// 16/12 Q1020
Conditions at: EKRK (COPENHAGEN/ROSKI, DK) observed 1320 UTC 20 August 2019
Temperature: 16.0°C (61°F)
Dewpoint: 12.0°C (54°F) [RH = 77%]
Pressure (altimeter): 30.12 inches Hg (1020.0 mb)
Winds: from the WSW (240 degrees) at 16 MPH (14 knots; 7.2 m/s)
Visibility: 6 or more miles (10+ km)
Ceiling: 3600 feet AGL
Clouds: broken clouds at 3600 feet AGL
Weather: -RA  (light rain)

METAR text: EKRK 201250Z AUTO 24012KT 200V260 9999 BKN036/// BKN072/// 20/11 Q1019
Conditions at: EKRK (COPENHAGEN/ROSKI, DK) observed 1250 UTC 20 August 2019
Temperature: 20.0°C (68°F)
Dewpoint: 11.0°C (52°F) [RH = 56%]
Pressure (altimeter): 30.09 inches Hg (1019.0 mb)
Winds: from the WSW (240 degrees) at 14 MPH (12 knots; 6.2 m/s)
Visibility: 6 or more miles (10+ km)
Ceiling: 3600 feet AGL
Clouds: broken clouds at 3600 feet AGL
broken clouds at 7200 feet AGL
Weather: no significant weather observed at this time

METAR text: EKRK 201220Z AUTO 23012KT 200V260 9999 SCT036/// 21/12 Q1018
Conditions at: EKRK (COPENHAGEN/ROSKI, DK) observed 1220 UTC 20 August 2019
Temperature: 21.0°C (70°F)
Dewpoint: 12.0°C (54°F) [RH = 56%]
Pressure (altimeter): 30.06 inches Hg (1018.0 mb)
Winds: from the SW (230 degrees) at 14 MPH (12 knots; 6.2 m/s)
Visibility: 6 or more miles (10+ km)
Ceiling: at least 12,000 feet AGL
Clouds: scattered clouds at 3600 feet AGL
Weather: no significant weather observed at this time

METAR text: EKRK 201150Z AUTO 23014KT 210V270 9999 FEW032/// 20/13 Q1019
Conditions at: EKRK (COPENHAGEN/ROSKI, DK) observed 1150 UTC 20 August 2019
Temperature: 20.0°C (68°F)
Dewpoint: 13.0°C (55°F) [RH = 64%]
Pressure (altimeter): 30.09 inches Hg (1019.0 mb)
Winds: from the SW (230 degrees) at 16 MPH (14 knots; 7.2 m/s)
Visibility: 6 or more miles (10+ km)
Ceiling: at least 12,000 feet AGL
Clouds: few clouds at 3200 feet AGL
Weather: no significant weather observed at this time

METAR text: EKRK 201120Z AUTO 22016KT 9999 SCT029/// BKN058/// 20/12 Q1019
Conditions at: EKRK (COPENHAGEN/ROSKI, DK) observed 1120 UTC 20 August 2019
Temperature: 20.0°C (68°F)
Dewpoint: 12.0°C (54°F) [RH = 60%]
Pressure (altimeter): 30.09 inches Hg (1019.0 mb)
Winds: from the SW (220 degrees) at 18 MPH (16 knots; 8.2 m/s)
Visibility: 6 or more miles (10+ km)
Ceiling: 5800 feet AGL
Clouds: scattered clouds at 2900 feet AGL
broken clouds at 5800 feet AGL
Weather: no significant weather observed at this time

METAR text: EKRK 201050Z AUTO 22014KT 9999 FEW029/// 20/13 Q1019
Conditions at: EKRK (COPENHAGEN/ROSKI, DK) observed 1050 UTC 20 August 2019
Temperature: 20.0°C (68°F)
Dewpoint: 13.0°C (55°F) [RH = 64%]
Pressure (altimeter): 30.09 inches Hg (1019.0 mb)
Winds: from the SW (220 degrees) at 16 MPH (14 knots; 7.2 m/s)
Visibility: 6 or more miles (10+ km)
Ceiling: at least 12,000 feet AGL
Clouds: few clouds at 2900 feet AGL
Weather: no significant weather observed at this time

METAR text: EKRK 201020Z AUTO 23014KT 9999 FEW026/// BKN089/// 20/13 Q1018
Conditions at: EKRK (COPENHAGEN/ROSKI, DK) observed 1020 UTC 20 August 2019
Temperature: 20.0°C (68°F)
Dewpoint: 13.0°C (55°F) [RH = 64%]
Pressure (altimeter): 30.06 inches Hg (1018.0 mb)
Winds: from the SW (230 degrees) at 16 MPH (14 knots; 7.2 m/s)
Visibility: 6 or more miles (10+ km)
Ceiling: 8900 feet AGL
Clouds: few clouds at 2600 feet AGL
broken clouds at 8900 feet AGL
Weather: no significant weather observed at this time

METAR text: EKRK 200950Z AUTO 22010KT 9999 FEW056/// SCT091/// 19/14 Q1019
Conditions at: EKRK (COPENHAGEN/ROSKI, DK) observed 0950 UTC 20 August 2019
Temperature: 19.0°C (66°F)
Dewpoint: 14.0°C (57°F) [RH = 73%]
Pressure (altimeter): 30.09 inches Hg (1019.0 mb)
Winds: from the SW (220 degrees) at 12 MPH (10 knots; 5.1 m/s)
Visibility: 6 or more miles (10+ km)
Ceiling: at least 12,000 feet AGL
Clouds: few clouds at 5600 feet AGL
scattered clouds at 9100 feet AGL
Weather: no significant weather observed at this time

METAR text: EKRK 200920Z AUTO 21012KT 9999 -DZ FEW023/// FEW032/// SCT063/// SCT079/// 17/13 Q1019
Conditions at: EKRK (COPENHAGEN/ROSKI, DK) observed 0920 UTC 20 August 2019
Temperature: 17.0°C (63°F)
Dewpoint: 13.0°C (55°F) [RH = 77%]
Pressure (altimeter): 30.09 inches Hg (1019.0 mb)
Winds: from the SSW (210 degrees) at 14 MPH (12 knots; 6.2 m/s)
Visibility: 6 or more miles (10+ km)
Ceiling: at least 12,000 feet AGL
Clouds: few clouds at 2300 feet AGL
few clouds at 3200 feet AGL
scattered clouds at 6300 feet AGL
scattered clouds at 7900 feet AGL
Weather: -DZ  (light drizzle)

METAR text: EKRK 200850Z AUTO 22010KT 190V260 9999 SCT029/// BKN047/// BKN058/// BKN082/// 19/12 Q1018
Conditions at: EKRK (COPENHAGEN/ROSKI, DK) observed 0850 UTC 20 August 2019
Temperature: 19.0°C (66°F)
Dewpoint: 12.0°C (54°F) [RH = 64%]
Pressure (altimeter): 30.06 inches Hg (1018.0 mb)
Winds: from the SW (220 degrees) at 12 MPH (10 knots; 5.1 m/s)
Visibility: 6 or more miles (10+ km)
Ceiling: 4700 feet AGL
Clouds: scattered clouds at 2900 feet AGL
broken clouds at 4700 feet AGL
broken clouds at 5800 feet AGL
broken clouds at 8200 feet AGL
Weather: no significant weather observed at this time

METAR text: EKRK 200820Z AUTO 23009KT 200V260 9999 BKN022/// BKN067/// 19/13 Q1018
Conditions at: EKRK (COPENHAGEN/ROSKI, DK) observed 0820 UTC 20 August 2019
Temperature: 19.0°C (66°F)
Dewpoint: 13.0°C (55°F) [RH = 68%]
Pressure (altimeter): 30.06 inches Hg (1018.0 mb)
Winds: from the SW (230 degrees) at 10 MPH (9 knots; 4.6 m/s)
Visibility: 6 or more miles (10+ km)
Ceiling: 2200 feet AGL
Clouds: broken clouds at 2200 feet AGL
broken clouds at 6700 feet AGL
Weather: no significant weather observed at this time

METAR text: EKRK 200750Z AUTO 22010KT 190V250 9999 FEW020/// 19/14 Q1018
Conditions at: EKRK (COPENHAGEN/ROSKI, DK) observed 0750 UTC 20 August 2019
Temperature: 19.0°C (66°F)
Dewpoint: 14.0°C (57°F) [RH = 73%]
Pressure (altimeter): 30.06 inches Hg (1018.0 mb)
Winds: from the SW (220 degrees) at 12 MPH (10 knots; 5.1 m/s)
Visibility: 6 or more miles (10+ km)
Ceiling: at least 12,000 feet AGL
Clouds: few clouds at 2000 feet AGL
Weather: no significant weather observed at this time

METAR text: EKRK 200720Z AUTO 22009KT 9999 FEW017/// 18/13 Q1018
Conditions at: EKRK (COPENHAGEN/ROSKI, DK) observed 0720 UTC 20 August 2019
Temperature: 18.0°C (64°F)
Dewpoint: 13.0°C (55°F) [RH = 73%]
Pressure (altimeter): 30.06 inches Hg (1018.0 mb)
Winds: from the SW (220 degrees) at 10 MPH (9 knots; 4.6 m/s)
Visibility: 6 or more miles (10+ km)
Ceiling: at least 12,000 feet AGL
Clouds: few clouds at 1700 feet AGL
Weather: no significant weather observed at this time

METAR text: EKRK 200650Z AUTO 21008KT 9999 NCD 17/14 Q1018
Conditions at: EKRK (COPENHAGEN/ROSKI, DK) observed 0650 UTC 20 August 2019
Temperature: 17.0°C (63°F)
Dewpoint: 14.0°C (57°F) [RH = 82%]
Pressure (altimeter): 30.06 inches Hg (1018.0 mb)
Winds: from the SSW (210 degrees) at 9 MPH (8 knots; 4.1 m/s)
Visibility: 6 or more miles (10+ km)
Ceiling: at least 12,000 feet AGL
Clouds: sky clear below 12,000 feet AGL
Weather: no significant weather observed at this time

METAR text: EKRK 200620Z AUTO 20006KT 9999 NCD 16/14 Q1018
Conditions at: EKRK (COPENHAGEN/ROSKI, DK) observed 0620 UTC 20 August 2019
Temperature: 16.0°C (61°F)
Dewpoint: 14.0°C (57°F) [RH = 88%]
Pressure (altimeter): 30.06 inches Hg (1018.0 mb)
Winds: from the SSW (200 degrees) at 7 MPH (6 knots; 3.1 m/s)
Visibility: 6 or more miles (10+ km)
Ceiling: at least 12,000 feet AGL
Clouds: sky clear below 12,000 feet AGL
Weather: no significant weather observed at this time

METAR text: EKRK 200550Z AUTO 17005KT 9999 NCD 15/13 Q1018
Conditions at: EKRK (COPENHAGEN/ROSKI, DK) observed 0550 UTC 20 August 2019
Temperature: 15.0°C (59°F)
Dewpoint: 13.0°C (55°F) [RH = 88%]
Pressure (altimeter): 30.06 inches Hg (1018.0 mb)
Winds: from the S (170 degrees) at 6 MPH (5 knots; 2.6 m/s)
Visibility: 6 or more miles (10+ km)
Ceiling: at least 12,000 feet AGL
Clouds: sky clear below 12,000 feet AGL
Weather: no significant weather observed at this time

METAR text: EKRK 200520Z AUTO 16003KT 9999 NCD 14/13 Q1018
Conditions at: EKRK (COPENHAGEN/ROSKI, DK) observed 0520 UTC 20 August 2019
Temperature: 14.0°C (57°F)
Dewpoint: 13.0°C (55°F) [RH = 94%]
Pressure (altimeter): 30.06 inches Hg (1018.0 mb)
Winds: from the SSE (160 degrees) at 3 MPH (3 knots; 1.5 m/s)
Visibility: 6 or more miles (10+ km)
Ceiling: at least 12,000 feet AGL
Clouds: sky clear below 12,000 feet AGL
Weather: no significant weather observed at this time

METAR text: EKRK 200450Z AUTO 17004KT 9999 NCD 13/12 Q1017
Conditions at: EKRK (COPENHAGEN/ROSKI, DK) observed 0450 UTC 20 August 2019
Temperature: 13.0°C (55°F)
Dewpoint: 12.0°C (54°F) [RH = 94%]
Pressure (altimeter): 30.03 inches Hg (1017.0 mb)
Winds: from the S (170 degrees) at 5 MPH (4 knots; 2.1 m/s)
Visibility: 6 or more miles (10+ km)
Ceiling: at least 12,000 feet AGL
Clouds: sky clear below 12,000 feet AGL
Weather: no significant weather observed at this time

METAR text: EKRK 200420Z AUTO 20004KT 9999 NCD 13/12 Q1017
Conditions at: EKRK (COPENHAGEN/ROSKI, DK) observed 0420 UTC 20 August 2019
Temperature: 13.0°C (55°F)
Dewpoint: 12.0°C (54°F) [RH = 94%]
Pressure (altimeter): 30.03 inches Hg (1017.0 mb)
Winds: from the SSW (200 degrees) at 5 MPH (4 knots; 2.1 m/s)
Visibility: 6 or more miles (10+ km)
Ceiling: at least 12,000 feet AGL
Clouds: sky clear below 12,000 feet AGL
Weather: no significant weather observed at this time

METAR text: EKRK 200350Z AUTO 20005KT 9999 SCT120/// 13/12 Q1017
Conditions at: EKRK (COPENHAGEN/ROSKI, DK) observed 0350 UTC 20 August 2019
Temperature: 13.0°C (55°F)
Dewpoint: 12.0°C (54°F) [RH = 94%]
Pressure (altimeter): 30.03 inches Hg (1017.0 mb)
Winds: from the SSW (200 degrees) at 6 MPH (5 knots; 2.6 m/s)
Visibility: 6 or more miles (10+ km)
Ceiling: at least 12,000 feet AGL
Clouds: scattered clouds at 12000 feet AGL
Weather: no significant weather observed at this time

METAR text: EKRK 200320Z AUTO 19004KT 9999 NCD 13/12 Q1017
Conditions at: EKRK (COPENHAGEN/ROSKI, DK) observed 0320 UTC 20 August 2019
Temperature: 13.0°C (55°F)
Dewpoint: 12.0°C (54°F) [RH = 94%]
Pressure (altimeter): 30.03 inches Hg (1017.0 mb)
Winds: from the S (190 degrees) at 5 MPH (4 knots; 2.1 m/s)
Visibility: 6 or more miles (10+ km)
Ceiling: at least 12,000 feet AGL
Clouds: sky clear below 12,000 feet AGL
Weather: no significant weather observed at this time

METAR text: EKRK 200250Z AUTO 20003KT 9999 NCD 13/12 Q1017
Conditions at: EKRK (COPENHAGEN/ROSKI, DK) observed 0250 UTC 20 August 2019
Temperature: 13.0°C (55°F)
Dewpoint: 12.0°C (54°F) [RH = 94%]
Pressure (altimeter): 30.03 inches Hg (1017.0 mb)
Winds: from the SSW (200 degrees) at 3 MPH (3 knots; 1.5 m/s)
Visibility: 6 or more miles (10+ km)
Ceiling: at least 12,000 feet AGL
Clouds: sky clear below 12,000 feet AGL
Weather: no significant weather observed at this time

METAR text: EKRK 200220Z AUTO 19004KT 9999 NCD 13/12 Q1017
Conditions at: EKRK (COPENHAGEN/ROSKI, DK) observed 0220 UTC 20 August 2019
Temperature: 13.0°C (55°F)
Dewpoint: 12.0°C (54°F) [RH = 94%]
Pressure (altimeter): 30.03 inches Hg (1017.0 mb)
Winds: from the S (190 degrees) at 5 MPH (4 knots; 2.1 m/s)
Visibility: 6 or more miles (10+ km)
Ceiling: at least 12,000 feet AGL
Clouds: sky clear below 12,000 feet AGL
Weather: no significant weather observed at this time

METAR text: EKRK 200150Z AUTO 19005KT 9999 NCD 13/12 Q1017
Conditions at: EKRK (COPENHAGEN/ROSKI, DK) observed 0150 UTC 20 August 2019
Temperature: 13.0°C (55°F)
Dewpoint: 12.0°C (54°F) [RH = 94%]
Pressure (altimeter): 30.03 inches Hg (1017.0 mb)
Winds: from the S (190 degrees) at 6 MPH (5 knots; 2.6 m/s)
Visibility: 6 or more miles (10+ km)
Ceiling: at least 12,000 feet AGL
Clouds: sky clear below 12,000 feet AGL
Weather: no significant weather observed at this time

METAR text: EKRK 200120Z AUTO 22005KT 9999 NCD 13/12 Q1017
Conditions at: EKRK (COPENHAGEN/ROSKI, DK) observed 0120 UTC 20 August 2019
Temperature: 13.0°C (55°F)
Dewpoint: 12.0°C (54°F) [RH = 94%]
Pressure (altimeter): 30.03 inches Hg (1017.0 mb)
Winds: from the SW (220 degrees) at 6 MPH (5 knots; 2.6 m/s)
Visibility: 6 or more miles (10+ km)
Ceiling: at least 12,000 feet AGL
Clouds: sky clear below 12,000 feet AGL
Weather: no significant weather observed at this time

METAR text: EKRK 200050Z AUTO 23006KT 9999 NCD 14/13 Q1016
Conditions at: EKRK (COPENHAGEN/ROSKI, DK) observed 0050 UTC 20 August 2019
Temperature: 14.0°C (57°F)
Dewpoint: 13.0°C (55°F) [RH = 94%]
Pressure (altimeter): 30.00 inches Hg (1016.0 mb)
Winds: from the SW (230 degrees) at 7 MPH (6 knots; 3.1 m/s)
Visibility: 6 or more miles (10+ km)
Ceiling: at least 12,000 feet AGL
Clouds: sky clear below 12,000 feet AGL
Weather: no significant weather observed at this time

METAR text: EKRK 200020Z AUTO 23006KT 9999 NCD 14/12 Q1016
Conditions at: EKRK (COPENHAGEN/ROSKI, DK) observed 0020 UTC 20 August 2019
Temperature: 14.0°C (57°F)
Dewpoint: 12.0°C (54°F) [RH = 88%]
Pressure (altimeter): 30.00 inches Hg (1016.0 mb)
Winds: from the SW (230 degrees) at 7 MPH (6 knots; 3.1 m/s)
Visibility: 6 or more miles (10+ km)
Ceiling: at least 12,000 feet AGL
Clouds: sky clear below 12,000 feet AGL
Weather: no significant weather observed at this time

METAR text: EKRK 192350Z AUTO 22006KT 9999 NCD 13/12 Q1016
Conditions at: EKRK (COPENHAGEN/ROSKI, DK) observed 2350 UTC 19 August 2019
Temperature: 13.0°C (55°F)
Dewpoint: 12.0°C (54°F) [RH = 94%]
Pressure (altimeter): 30.00 inches Hg (1016.0 mb)
Winds: from the SW (220 degrees) at 7 MPH (6 knots; 3.1 m/s)
Visibility: 6 or more miles (10+ km)
Ceiling: at least 12,000 feet AGL
Clouds: sky clear below 12,000 feet AGL
Weather: no significant weather observed at this time

METAR text: EKRK 192320Z AUTO 24004KT 9999 NCD 13/12 Q1016
Conditions at: EKRK (COPENHAGEN/ROSKI, DK) observed 2320 UTC 19 August 2019
Temperature: 13.0°C (55°F)
Dewpoint: 12.0°C (54°F) [RH = 94%]
Pressure (altimeter): 30.00 inches Hg (1016.0 mb)
Winds: from the WSW (240 degrees) at 5 MPH (4 knots; 2.1 m/s)
Visibility: 6 or more miles (10+ km)
Ceiling: at least 12,000 feet AGL
Clouds: sky clear below 12,000 feet AGL
Weather: no significant weather observed at this time

METAR text: EKRK 192250Z AUTO 22003KT 9999 NCD 13/12 Q1016
Conditions at: EKRK (COPENHAGEN/ROSKI, DK) observed 2250 UTC 19 August 2019
Temperature: 13.0°C (55°F)
Dewpoint: 12.0°C (54°F) [RH = 94%]
Pressure (altimeter): 30.00 inches Hg (1016.0 mb)
Winds: from the SW (220 degrees) at 3 MPH (3 knots; 1.5 m/s)
Visibility: 6 or more miles (10+ km)
Ceiling: at least 12,000 feet AGL
Clouds: sky clear below 12,000 feet AGL
Weather: no significant weather observed at this time

METAR text: EKRK 192220Z AUTO 21005KT 9999 NCD 14/13 Q1016
Conditions at: EKRK (COPENHAGEN/ROSKI, DK) observed 2220 UTC 19 August 2019
Temperature: 14.0°C (57°F)
Dewpoint: 13.0°C (55°F) [RH = 94%]
Pressure (altimeter): 30.00 inches Hg (1016.0 mb)
Winds: from the SSW (210 degrees) at 6 MPH (5 knots; 2.6 m/s)
Visibility: 6 or more miles (10+ km)
Ceiling: at least 12,000 feet AGL
Clouds: sky clear below 12,000 feet AGL
Weather: no significant weather observed at this time

METAR text: EKRK 192150Z AUTO 21005KT 9999 SCT120/// 15/13 Q1016
Conditions at: EKRK (COPENHAGEN/ROSKI, DK) observed 2150 UTC 19 August 2019
Temperature: 15.0°C (59°F)
Dewpoint: 13.0°C (55°F) [RH = 88%]
Pressure (altimeter): 30.00 inches Hg (1016.0 mb)
Winds: from the SSW (210 degrees) at 6 MPH (5 knots; 2.6 m/s)
Visibility: 6 or more miles (10+ km)
Ceiling: at least 12,000 feet AGL
Clouds: scattered clouds at 12000 feet AGL
Weather: no significant weather observed at this time

METAR text: EKRK 192120Z AUTO 20006KT 9999 FEW081/// BKN120/// 15/13 Q1015
Conditions at: EKRK (COPENHAGEN/ROSKI, DK) observed 2120 UTC 19 August 2019
Temperature: 15.0°C (59°F)
Dewpoint: 13.0°C (55°F) [RH = 88%]
Pressure (altimeter): 29.97 inches Hg (1015.0 mb)
Winds: from the SSW (200 degrees) at 7 MPH (6 knots; 3.1 m/s)
Visibility: 6 or more miles (10+ km)
Ceiling: 12000 feet AGL
Clouds: few clouds at 8100 feet AGL
broken clouds at 12000 feet AGL
Weather: no significant weather observed at this time

METAR text: EKRK 192050Z AUTO 21007KT 9999 BKN110/// 15/13 Q1015
Conditions at: EKRK (COPENHAGEN/ROSKI, DK) observed 2050 UTC 19 August 2019
Temperature: 15.0°C (59°F)
Dewpoint: 13.0°C (55°F) [RH = 88%]
Pressure (altimeter): 29.97 inches Hg (1015.0 mb)
Winds: from the SSW (210 degrees) at 8 MPH (7 knots; 3.6 m/s)
Visibility: 6 or more miles (10+ km)
Ceiling: 11000 feet AGL
Clouds: broken clouds at 11000 feet AGL
Weather: no significant weather observed at this time

METAR text: EKRK 192020Z AUTO 21007KT 9999 BKN120/// 15/12 Q1015
Conditions at: EKRK (COPENHAGEN/ROSKI, DK) observed 2020 UTC 19 August 2019
Temperature: 15.0°C (59°F)
Dewpoint: 12.0°C (54°F) [RH = 82%]
Pressure (altimeter): 29.97 inches Hg (1015.0 mb)
Winds: from the SSW (210 degrees) at 8 MPH (7 knots; 3.6 m/s)
Visibility: 6 or more miles (10+ km)
Ceiling: 12000 feet AGL
Clouds: broken clouds at 12000 feet AGL
Weather: no significant weather observed at this time

METAR text: EKRK 191950Z AUTO 21008KT 9999 FEW160/// 16/13 Q1015
Conditions at: EKRK (COPENHAGEN/ROSKI, DK) observed 1950 UTC 19 August 2019
Temperature: 16.0°C (61°F)
Dewpoint: 13.0°C (55°F) [RH = 82%]
Pressure (altimeter): 29.97 inches Hg (1015.0 mb)
Winds: from the SSW (210 degrees) at 9 MPH (8 knots; 4.1 m/s)
Visibility: 6 or more miles (10+ km)
Ceiling: at least 12,000 feet AGL
Clouds: few clouds at 16000 feet AGL
Weather: no significant weather observed at this time

METAR text: EKRK 191920Z AUTO 21008KT 9999 NCD 16/13 Q1015
Conditions at: EKRK (COPENHAGEN/ROSKI, DK) observed 1920 UTC 19 August 2019
Temperature: 16.0°C (61°F)
Dewpoint: 13.0°C (55°F) [RH = 82%]
Pressure (altimeter): 29.97 inches Hg (1015.0 mb)
Winds: from the SSW (210 degrees) at 9 MPH (8 knots; 4.1 m/s)
Visibility: 6 or more miles (10+ km)
Ceiling: at least 12,000 feet AGL
Clouds: sky clear below 12,000 feet AGL
Weather: no significant weather observed at this time

METAR text: EKRK 191850Z AUTO 20007KT 9999 FEW100/// 16/13 Q1015
Conditions at: EKRK (COPENHAGEN/ROSKI, DK) observed 1850 UTC 19 August 2019
Temperature: 16.0°C (61°F)
Dewpoint: 13.0°C (55°F) [RH = 82%]
Pressure (altimeter): 29.97 inches Hg (1015.0 mb)
Winds: from the SSW (200 degrees) at 8 MPH (7 knots; 3.6 m/s)
Visibility: 6 or more miles (10+ km)
Ceiling: at least 12,000 feet AGL
Clouds: few clouds at 10000 feet AGL
Weather: no significant weather observed at this time

METAR text: EKRK 191820Z AUTO 21007KT 9999 BKN098/// 17/13 Q1014
Conditions at: EKRK (COPENHAGEN/ROSKI, DK) observed 1820 UTC 19 August 2019
Temperature: 17.0°C (63°F)
Dewpoint: 13.0°C (55°F) [RH = 77%]
Pressure (altimeter): 29.94 inches Hg (1014.0 mb)
Winds: from the SSW (210 degrees) at 8 MPH (7 knots; 3.6 m/s)
Visibility: 6 or more miles (10+ km)
Ceiling: 9800 feet AGL
Clouds: broken clouds at 9800 feet AGL
Weather: no significant weather observed at this time

METAR text: EKRK 191750Z AUTO 23006KT 9999 FEW100/// 18/13 Q1014
Conditions at: EKRK (COPENHAGEN/ROSKI, DK) observed 1750 UTC 19 August 2019
Temperature: 18.0°C (64°F)
Dewpoint: 13.0°C (55°F) [RH = 73%]
Pressure (altimeter): 29.94 inches Hg (1014.0 mb)
Winds: from the SW (230 degrees) at 7 MPH (6 knots; 3.1 m/s)
Visibility: 6 or more miles (10+ km)
Ceiling: at least 12,000 feet AGL
Clouds: few clouds at 10000 feet AGL
Weather: no significant weather observed at this time

METAR text: EKRK 191720Z AUTO 23005KT 9999 NCD 18/14 Q1014
Conditions at: EKRK (COPENHAGEN/ROSKI, DK) observed 1720 UTC 19 August 2019
Temperature: 18.0°C (64°F)
Dewpoint: 14.0°C (57°F) [RH = 77%]
Pressure (altimeter): 29.94 inches Hg (1014.0 mb)
Winds: from the SW (230 degrees) at 6 MPH (5 knots; 2.6 m/s)
Visibility: 6 or more miles (10+ km)
Ceiling: at least 12,000 feet AGL
Clouds: sky clear below 12,000 feet AGL
Weather: no significant weather observed at this time

METAR text: EKRK 191650Z AUTO 25007KT 9999 SCT094/// SCT110/// 18/14 Q1014
Conditions at: EKRK (COPENHAGEN/ROSKI, DK) observed 1650 UTC 19 August 2019
Temperature: 18.0°C (64°F)
Dewpoint: 14.0°C (57°F) [RH = 77%]
Pressure (altimeter): 29.94 inches Hg (1014.0 mb)
Winds: from the WSW (250 degrees) at 8 MPH (7 knots; 3.6 m/s)
Visibility: 6 or more miles (10+ km)
Ceiling: at least 12,000 feet AGL
Clouds: scattered clouds at 9400 feet AGL
scattered clouds at 11000 feet AGL
Weather: no significant weather observed at this time

METAR text: EKRK 191620Z AUTO 24009KT 9999 OVC072/// 17/13 Q1014
Conditions at: EKRK (COPENHAGEN/ROSKI, DK) observed 1620 UTC 19 August 2019
Temperature: 17.0°C (63°F)
Dewpoint: 13.0°C (55°F) [RH = 77%]
Pressure (altimeter): 29.94 inches Hg (1014.0 mb)
Winds: from the WSW (240 degrees) at 10 MPH (9 knots; 4.6 m/s)
Visibility: 6 or more miles (10+ km)
Ceiling: 7200 feet AGL
Clouds: overcast cloud deck at 7200 feet AGL
Weather: no significant weather observed at this time

METAR text: EKRK 191550Z AUTO 25014G24KT 220V280 6000 -RA BKN032/// 17/13 Q1014
Conditions at: EKRK (COPENHAGEN/ROSKI, DK) observed 1550 UTC 19 August 2019
Temperature: 17.0°C (63°F)
Dewpoint: 13.0°C (55°F) [RH = 77%]
Pressure (altimeter): 29.94 inches Hg (1014.0 mb)
Winds: from the WSW (250 degrees) at 16 MPH (14 knots; 7.2 m/s)
gusting to 28 MPH (24 knots; 12.3 m/s)
Visibility: 4 miles ( 6 km)
Ceiling: 3200 feet AGL
Clouds: broken clouds at 3200 feet AGL
Weather: -RA  (light rain)

METAR text: EKRK 191520Z AUTO 28006KT 230V300 9999 BKN032/// BKN078/// 19/13 Q1013
Conditions at: EKRK (COPENHAGEN/ROSKI, DK) observed 1520 UTC 19 August 2019
Temperature: 19.0°C (66°F)
Dewpoint: 13.0°C (55°F) [RH = 68%]
Pressure (altimeter): 29.91 inches Hg (1013.0 mb)
Winds: from the W (280 degrees) at 7 MPH (6 knots; 3.1 m/s)
Visibility: 6 or more miles (10+ km)
Ceiling: 3200 feet AGL
Clouds: broken clouds at 3200 feet AGL
broken clouds at 7800 feet AGL
Weather: no significant weather observed at this time

METAR text: EKRK 191450Z AUTO 24014KT 9999 SCT032/// SCT058/// BKN093/// 19/13 Q1013
Conditions at: EKRK (COPENHAGEN/ROSKI, DK) observed 1450 UTC 19 August 2019
Temperature: 19.0°C (66°F)
Dewpoint: 13.0°C (55°F) [RH = 68%]
Pressure (altimeter): 29.91 inches Hg (1013.0 mb)
Winds: from the WSW (240 degrees) at 16 MPH (14 knots; 7.2 m/s)
Visibility: 6 or more miles (10+ km)
Ceiling: 9300 feet AGL
Clouds: scattered clouds at 3200 feet AGL
scattered clouds at 5800 feet AGL
broken clouds at 9300 feet AGL
Weather: no significant weather observed at this time

METAR text: EKRK 191420Z AUTO 22016KT 9999 BKN030/// 20/13 Q1012
Conditions at: EKRK (COPENHAGEN/ROSKI, DK) observed 1420 UTC 19 August 2019
Temperature: 20.0°C (68°F)
Dewpoint: 13.0°C (55°F) [RH = 64%]
Pressure (altimeter): 29.88 inches Hg (1012.0 mb)
Winds: from the SW (220 degrees) at 18 MPH (16 knots; 8.2 m/s)
Visibility: 6 or more miles (10+ km)
Ceiling: 3000 feet AGL
Clouds: broken clouds at 3000 feet AGL
Weather: no significant weather observed at this time

METAR text: EKRK 191350Z AUTO 22012KT 190V250 9999 BKN029/// BKN094/// 20/13 Q1012
Conditions at: EKRK (COPENHAGEN/ROSKI, DK) observed 1350 UTC 19 August 2019
Temperature: 20.0°C (68°F)
Dewpoint: 13.0°C (55°F) [RH = 64%]
Pressure (altimeter): 29.88 inches Hg (1012.0 mb)
Winds: from the SW (220 degrees) at 14 MPH (12 knots; 6.2 m/s)
Visibility: 6 or more miles (10+ km)
Ceiling: 2900 feet AGL
Clouds: broken clouds at 2900 feet AGL
broken clouds at 9400 feet AGL
Weather: no significant weather observed at this time

METAR text: EKRK 191320Z AUTO 23014KT 190V260 9999 SCT029/// 20/13 Q1012
Conditions at: EKRK (COPENHAGEN/ROSKI, DK) observed 1320 UTC 19 August 2019
Temperature: 20.0°C (68°F)
Dewpoint: 13.0°C (55°F) [RH = 64%]
Pressure (altimeter): 29.88 inches Hg (1012.0 mb)
Winds: from the SW (230 degrees) at 16 MPH (14 knots; 7.2 m/s)
Visibility: 6 or more miles (10+ km)
Ceiling: at least 12,000 feet AGL
Clouds: scattered clouds at 2900 feet AGL
Weather: no significant weather observed at this time

METAR text: EKRK 191250Z AUTO 22015KT 9999 SCT029/// BKN051/// 20/13 Q1012
Conditions at: EKRK (COPENHAGEN/ROSKI, DK) observed 1250 UTC 19 August 2019
Temperature: 20.0°C (68°F)
Dewpoint: 13.0°C (55°F) [RH = 64%]
Pressure (altimeter): 29.88 inches Hg (1012.0 mb)
Winds: from the SW (220 degrees) at 17 MPH (15 knots; 7.7 m/s)
Visibility: 6 or more miles (10+ km)
Ceiling: 5100 feet AGL
Clouds: scattered clouds at 2900 feet AGL
broken clouds at 5100 feet AGL
Weather: no significant weather observed at this time

METAR text: EKRK 191220Z AUTO 23014KT 9999 FEW028/// 20/13 Q1012
Conditions at: EKRK (COPENHAGEN/ROSKI, DK) observed 1220 UTC 19 August 2019
Temperature: 20.0°C (68°F)
Dewpoint: 13.0°C (55°F) [RH = 64%]
Pressure (altimeter): 29.88 inches Hg (1012.0 mb)
Winds: from the SW (230 degrees) at 16 MPH (14 knots; 7.2 m/s)
Visibility: 6 or more miles (10+ km)
Ceiling: at least 12,000 feet AGL
Clouds: few clouds at 2800 feet AGL
Weather: no significant weather observed at this time

METAR text: EKRK 191150Z AUTO 23014KT 9999 FEW029/// 20/12 Q1011
Conditions at: EKRK (COPENHAGEN/ROSKI, DK) observed 1150 UTC 19 August 2019
Temperature: 20.0°C (68°F)
Dewpoint: 12.0°C (54°F) [RH = 60%]
Pressure (altimeter): 29.85 inches Hg (1011.0 mb)
Winds: from the SW (230 degrees) at 16 MPH (14 knots; 7.2 m/s)
Visibility: 6 or more miles (10+ km)
Ceiling: at least 12,000 feet AGL
Clouds: few clouds at 2900 feet AGL
Weather: no significant weather observed at this time

METAR text: EKRK 191120Z AUTO 23013KT 9999 BKN091/// 20/13 Q1011
Conditions at: EKRK (COPENHAGEN/ROSKI, DK) observed 1120 UTC 19 August 2019
Temperature: 20.0°C (68°F)
Dewpoint: 13.0°C (55°F) [RH = 64%]
Pressure (altimeter): 29.85 inches Hg (1011.0 mb)
Winds: from the SW (230 degrees) at 15 MPH (13 knots; 6.7 m/s)
Visibility: 6 or more miles (10+ km)
Ceiling: 9100 feet AGL
Clouds: broken clouds at 9100 feet AGL
Weather: no significant weather observed at this time

METAR text: EKRK 191050Z AUTO 23012KT 9999 BKN089/// 19/12 Q1011
Conditions at: EKRK (COPENHAGEN/ROSKI, DK) observed 1050 UTC 19 August 2019
Temperature: 19.0°C (66°F)
Dewpoint: 12.0°C (54°F) [RH = 64%]
Pressure (altimeter): 29.85 inches Hg (1011.0 mb)
Winds: from the SW (230 degrees) at 14 MPH (12 knots; 6.2 m/s)
Visibility: 6 or more miles (10+ km)
Ceiling: 8900 feet AGL
Clouds: broken clouds at 8900 feet AGL
Weather: no significant weather observed at this time

METAR text: EKRK 191020Z AUTO 23014KT 9999 SCT024/// BKN083/// 19/13 Q1010
Conditions at: EKRK (COPENHAGEN/ROSKI, DK) observed 1020 UTC 19 August 2019
Temperature: 19.0°C (66°F)
Dewpoint: 13.0°C (55°F) [RH = 68%]
Pressure (altimeter): 29.82 inches Hg (1010.0 mb)
Winds: from the SW (230 degrees) at 16 MPH (14 knots; 7.2 m/s)
Visibility: 6 or more miles (10+ km)
Ceiling: 8300 feet AGL
Clouds: scattered clouds at 2400 feet AGL
broken clouds at 8300 feet AGL
Weather: no significant weather observed at this time

METAR text: EKRK 190950Z AUTO 23015KT 9999 FEW024/// BKN089/// 19/12 Q1010
Conditions at: EKRK (COPENHAGEN/ROSKI, DK) observed 0950 UTC 19 August 2019
Temperature: 19.0°C (66°F)
Dewpoint: 12.0°C (54°F) [RH = 64%]
Pressure (altimeter): 29.82 inches Hg (1010.0 mb)
Winds: from the SW (230 degrees) at 17 MPH (15 knots; 7.7 m/s)
Visibility: 6 or more miles (10+ km)
Ceiling: 8900 feet AGL
Clouds: few clouds at 2400 feet AGL
broken clouds at 8900 feet AGL
Weather: no significant weather observed at this time

METAR text: EKRK 190920Z AUTO 22015KT 9999 SCT023/// 18/12 Q1010
Conditions at: EKRK (COPENHAGEN/ROSKI, DK) observed 0920 UTC 19 August 2019
Temperature: 18.0°C (64°F)
Dewpoint: 12.0°C (54°F) [RH = 68%]
Pressure (altimeter): 29.82 inches Hg (1010.0 mb)
Winds: from the SW (220 degrees) at 17 MPH (15 knots; 7.7 m/s)
Visibility: 6 or more miles (10+ km)
Ceiling: at least 12,000 feet AGL
Clouds: scattered clouds at 2300 feet AGL
Weather: no significant weather observed at this time

Forecast for: EKRK (COPENHAGEN/ROSKI, DK)
Text: TAF EKRK 202004Z 2021/2106 23005KT 9999 SCT030
Forecast period: 2100 UTC 20 August 2019 to 0600 UTC 21 August 2019
Forecast type: FROM: standard forecast or significant change
Winds: from the SW (230 degrees) at 6 MPH (5 knots; 2.6 m/s)
Visibility: 6 or more miles 10+ km)
Ceiling: at least 12,000 feet AGL
Clouds: scattered clouds at 3000 feet AGL
Weather: no significant weather forecast for this period